createdAt,value
2022-08-21T00:01:45.519Z,3.90
2022-08-21T00:04:14.645Z,4.10
2022-08-21T00:06:51.082Z,4.25
2022-08-21T00:09:19.740Z,4.30
2022-08-21T00:11:48.031Z,4.18
2022-08-21T00:14:16.024Z,4.10
2022-08-21T00:16:43.329Z,4.15
2022-08-21T00:19:10.619Z,4.00
2022-08-21T00:21:38.121Z,4.00
2022-08-21T00:24:06.095Z,3.58
2022-08-21T00:26:35.416Z,4.10
2022-08-21T00:29:05.321Z,4.15
2022-08-21T00:31:32.657Z,3.95
2022-08-21T00:34:00.814Z,4.03
2022-08-21T00:36:29.636Z,3.70
2022-08-21T00:38:57.645Z,3.97
2022-08-21T00:41:38.347Z,3.70
2022-08-21T00:44:09.478Z,3.90
2022-08-21T00:46:37.984Z,3.97
2022-08-21T00:49:07.777Z,3.97
2022-08-21T00:51:44.694Z,3.83
2022-08-21T00:54:18.126Z,3.70
2022-08-21T00:56:51.170Z,3.92
2022-08-21T00:59:21.131Z,3.80
2022-08-21T01:01:49.058Z,3.65
2022-08-21T01:04:17.328Z,3.92
2022-08-21T01:06:45.379Z,3.80
2022-08-21T01:09:14.136Z,4.15
2022-08-21T01:11:44.047Z,3.50
2022-08-21T01:14:13.522Z,3.67
2022-08-21T01:16:47.195Z,3.60
2022-08-21T01:19:16.012Z,3.97
2022-08-21T01:21:43.985Z,3.42
2022-08-21T01:24:12.695Z,3.90
2022-08-21T01:26:40.914Z,3.67
2022-08-21T01:29:13.092Z,3.15
2022-08-21T01:31:40.470Z,3.58
2022-08-21T01:34:09.232Z,3.55
2022-08-21T01:36:36.693Z,3.58
2022-08-21T01:39:06.308Z,3.55
2022-08-21T01:41:33.643Z,3.35
2022-08-21T01:44:00.993Z,3.10
2022-08-21T01:46:28.476Z,3.60
2022-08-21T01:48:56.009Z,3.78
2022-08-21T01:51:23.335Z,3.40
2022-08-21T01:53:51.031Z,3.55
2022-08-21T01:56:19.519Z,3.30
2022-08-21T01:58:48.765Z,3.55
2022-08-21T02:01:17.085Z,3.20
2022-08-21T02:03:44.595Z,3.28
2022-08-21T02:06:18.524Z,3.08
2022-08-21T02:08:47.332Z,2.92
2022-08-21T02:11:15.024Z,3.03
2022-08-21T02:13:42.414Z,3.15
2022-08-21T02:16:10.327Z,3.17
2022-08-21T02:18:37.839Z,3.45
2022-08-21T02:21:06.729Z,3.20
2022-08-21T02:23:34.575Z,3.08
2022-08-21T02:26:04.014Z,3.00
2022-08-21T02:28:32.001Z,2.72
2022-08-21T02:30:59.758Z,2.70
2022-08-21T02:33:27.982Z,2.90
2022-08-21T02:35:56.137Z,2.47
2022-08-21T02:38:34.273Z,2.70
2022-08-21T02:41:01.992Z,2.65
2022-08-21T02:43:29.860Z,2.90
2022-08-21T02:45:59.104Z,2.50
2022-08-21T02:48:30.041Z,2.55
2022-08-21T02:51:09.507Z,2.70
2022-08-21T02:53:37.132Z,3.00
2022-08-21T02:56:07.170Z,2.55
2022-08-21T02:58:42.646Z,2.70
2022-08-21T03:01:11.385Z,2.85
2022-08-21T03:03:41.955Z,2.70
2022-08-21T03:06:12.544Z,2.67
2022-08-21T03:08:40.918Z,2.80
2022-08-21T03:11:08.710Z,2.72
2022-08-21T03:13:38.079Z,2.30
2022-08-21T03:16:05.682Z,2.72
2022-08-21T03:18:37.771Z,2.67
2022-08-21T03:21:06.427Z,2.53
2022-08-21T03:23:33.790Z,2.40
2022-08-21T03:26:01.945Z,2.50
2022-08-21T03:28:30.198Z,2.60
2022-08-21T03:30:57.683Z,2.70
2022-08-21T03:33:25.343Z,2.60
2022-08-21T03:36:04.570Z,2.70
2022-08-21T03:38:33.637Z,2.60
2022-08-21T03:41:01.666Z,2.67
2022-08-21T03:43:31.309Z,3.20
2022-08-21T03:46:01.906Z,2.90
2022-08-21T03:48:30.103Z,3.00
2022-08-21T03:50:57.718Z,3.10
2022-08-21T03:53:25.923Z,3.67
2022-08-21T03:55:53.791Z,4.03
2022-08-21T03:58:24.247Z,4.90
2022-08-21T04:00:55.091Z,5.80
2022-08-21T04:03:22.493Z,6.40
2022-08-21T04:05:49.978Z,6.82
2022-08-21T04:08:22.301Z,6.85
2022-08-21T04:10:53.446Z,6.97
2022-08-21T04:13:21.837Z,7.47
2022-08-21T04:15:49.580Z,8.32
2022-08-21T04:18:17.648Z,8.98
2022-08-21T04:20:50.292Z,9.27
2022-08-21T04:23:23.510Z,10.43
2022-08-21T04:25:53.405Z,10.43
2022-08-21T04:28:21.425Z,11.25
2022-08-21T04:30:51.979Z,10.85
2022-08-21T04:33:19.939Z,10.60
2022-08-21T04:35:47.843Z,10.23
2022-08-21T04:38:15.263Z,12.32
2022-08-21T04:40:43.092Z,11.98
2022-08-21T04:43:11.749Z,12.00
2022-08-21T04:45:43.219Z,11.40
2022-08-21T04:48:14.356Z,11.45
2022-08-21T04:51:32.172Z,11.95
2022-08-21T04:54:09.937Z,12.65
2022-08-21T04:56:43.621Z,13.07
2022-08-21T04:59:22.102Z,12.10
2022-08-21T05:01:50.177Z,13.65
2022-08-21T05:04:23.187Z,15.13
2022-08-21T05:06:52.128Z,14.35
2022-08-21T05:09:20.637Z,14.18
2022-08-21T05:11:49.728Z,14.90
2022-08-21T05:14:17.057Z,14.90
2022-08-21T05:16:44.975Z,14.30
2022-08-21T05:19:12.809Z,14.93
2022-08-21T05:21:44.392Z,15.23
2022-08-21T05:24:12.473Z,14.90
2022-08-21T05:26:46.321Z,13.73
2022-08-21T05:29:16.955Z,14.95
2022-08-21T05:31:46.522Z,14.10
2022-08-21T05:34:17.125Z,15.15
2022-08-21T05:36:45.112Z,15.43
2022-08-21T05:39:13.102Z,14.48
2022-08-21T05:41:40.398Z,14.63
2022-08-21T05:44:10.086Z,16.92
2022-08-21T05:46:37.900Z,16.58
2022-08-21T05:49:05.191Z,15.40
2022-08-21T05:51:32.689Z,14.55
2022-08-21T05:54:00.245Z,15.10
2022-08-21T05:56:27.590Z,15.27
2022-08-21T05:58:55.033Z,15.13
2022-08-21T06:01:22.352Z,14.77
2022-08-21T06:03:49.672Z,15.75
2022-08-21T06:06:17.028Z,16.17
2022-08-21T06:08:44.742Z,15.15
2022-08-21T06:11:12.162Z,15.70
2022-08-21T06:13:40.050Z,15.50
2022-08-21T06:16:16.065Z,15.80
2022-08-21T06:18:45.165Z,15.52
2022-08-21T06:21:13.940Z,14.32
2022-08-21T06:23:42.149Z,15.25
2022-08-21T06:26:11.260Z,13.60
2022-08-21T06:28:39.361Z,14.55
2022-08-21T06:31:19.049Z,13.70
2022-08-21T06:33:46.871Z,14.57
2022-08-21T06:36:14.702Z,14.40
2022-08-21T06:38:42.486Z,14.98
2022-08-21T06:41:19.405Z,14.27
2022-08-21T06:43:51.868Z,13.63
2022-08-21T06:46:19.300Z,15.55
2022-08-21T06:48:46.622Z,15.15
2022-08-21T06:51:13.964Z,14.38
2022-08-21T06:53:41.322Z,13.90
2022-08-21T06:56:09.007Z,13.88
2022-08-21T06:58:36.623Z,14.18
2022-08-21T07:01:04.738Z,14.73
2022-08-21T07:03:35.533Z,14.02
2022-08-21T07:06:05.314Z,15.00
2022-08-21T07:08:32.813Z,14.65
2022-08-21T07:11:02.563Z,13.50
2022-08-21T07:13:30.851Z,14.32
2022-08-21T07:16:03.186Z,14.60
2022-08-21T07:18:32.037Z,14.63
2022-08-21T07:21:01.331Z,14.80
2022-08-21T07:23:36.162Z,14.18
2022-08-21T07:26:03.521Z,15.18
2022-08-21T07:28:31.928Z,14.68
2022-08-21T07:31:01.126Z,14.45
2022-08-21T07:33:30.931Z,13.98
2022-08-21T07:35:59.029Z,14.50
2022-08-21T07:38:27.010Z,14.63
2022-08-21T07:40:57.475Z,14.63
2022-08-21T07:43:24.835Z,14.38
2022-08-21T07:45:52.238Z,14.23
2022-08-21T07:48:19.565Z,13.82
2022-08-21T07:50:47.172Z,14.18
2022-08-21T07:53:15.359Z,14.00
2022-08-21T07:55:42.881Z,13.25
2022-08-21T07:58:10.222Z,13.23
2022-08-21T08:00:37.957Z,13.43
2022-08-21T08:03:05.274Z,13.25
2022-08-21T08:05:33.393Z,12.32
2022-08-21T08:08:00.726Z,12.20
2022-08-21T08:10:28.171Z,10.75
2022-08-21T08:12:56.039Z,9.70
2022-08-21T08:15:27.589Z,8.02
2022-08-21T08:17:55.874Z,7.13
2022-08-21T08:20:24.708Z,6.43
2022-08-21T08:22:52.133Z,5.82
2022-08-21T08:25:23.138Z,5.28
2022-08-21T08:27:50.768Z,4.85
2022-08-21T08:30:19.930Z,3.95
2022-08-21T08:32:48.783Z,3.80
2022-08-21T08:35:16.673Z,2.97
2022-08-21T08:37:47.938Z,2.80
2022-08-21T08:40:34.304Z,3.45
2022-08-21T08:43:01.991Z,3.30
2022-08-21T08:45:33.482Z,3.20
2022-08-21T08:48:14.228Z,3.33
2022-08-21T08:51:01.796Z,3.65
2022-08-21T08:53:46.356Z,3.53
2022-08-21T08:56:13.948Z,3.97
2022-08-21T08:58:45.831Z,3.40
2022-08-21T09:01:19.743Z,3.90
2022-08-21T09:03:50.969Z,4.93
2022-08-21T09:06:30.145Z,3.75
2022-08-21T09:09:10.080Z,3.65
2022-08-21T09:11:53.486Z,3.13
2022-08-21T09:14:54.085Z,3.80
2022-08-21T09:17:48.854Z,3.63
2022-08-21T09:20:39.762Z,4.03
2022-08-21T09:23:10.887Z,3.60
2022-08-21T09:26:03.828Z,3.90
2022-08-21T09:28:37.962Z,4.00
2022-08-21T09:31:09.593Z,3.58
2022-08-21T09:33:37.084Z,5.47
2022-08-21T09:36:05.493Z,4.72
2022-08-21T09:38:37.659Z,9.60
2022-08-21T09:41:11.120Z,10.38
2022-08-21T09:43:39.696Z,9.87
2022-08-21T09:46:11.771Z,8.75
2022-08-21T09:48:51.281Z,6.60
2022-08-21T09:51:40.184Z,6.45
2022-08-21T09:54:07.721Z,4.70
2022-08-21T09:56:59.182Z,4.53
2022-08-21T09:59:37.000Z,3.90
2022-08-21T10:02:32.329Z,3.20
2022-08-21T10:05:22.926Z,3.30
2022-08-21T10:07:50.908Z,2.42
2022-08-21T10:10:26.618Z,2.10
2022-08-21T10:13:26.438Z,2.22
2022-08-21T10:16:38.246Z,1.90
2022-08-21T10:19:49.482Z,2.47
2022-08-21T10:22:19.806Z,2.38
2022-08-21T10:24:58.941Z,2.50
2022-08-21T10:27:40.031Z,2.38
2022-08-21T10:30:32.473Z,3.00
2022-08-21T10:33:22.805Z,3.47
2022-08-21T10:35:59.102Z,3.67
2022-08-21T10:39:02.315Z,4.18
2022-08-21T10:41:49.533Z,3.22
2022-08-21T10:44:24.914Z,3.58
2022-08-21T10:47:21.189Z,4.53
2022-08-21T10:50:28.908Z,2.90
2022-08-21T10:53:25.777Z,3.00
2022-08-21T10:55:57.546Z,2.33
2022-08-21T10:58:49.735Z,2.70
2022-08-21T11:01:49.517Z,2.85
2022-08-21T11:04:29.912Z,2.28
2022-08-21T11:07:21.281Z,3.25
2022-08-21T11:09:50.417Z,2.30
2022-08-21T11:12:43.496Z,2.38
2022-08-21T11:15:28.704Z,10.48
2022-08-21T11:18:16.159Z,10.07
2022-08-21T11:21:07.588Z,9.00
2022-08-21T11:23:47.184Z,7.70
2022-08-21T11:26:23.431Z,6.78
2022-08-21T11:28:59.801Z,5.38
2022-08-21T11:31:42.254Z,4.50
2022-08-21T11:34:18.323Z,4.57
2022-08-21T11:37:04.136Z,3.38
2022-08-21T11:39:52.791Z,3.25
2022-08-21T11:42:20.087Z,2.83
2022-08-21T11:45:13.615Z,2.78
2022-08-21T11:48:24.800Z,2.72
2022-08-21T11:50:54.037Z,2.67
2022-08-21T11:53:37.532Z,3.30
2022-08-21T11:56:32.038Z,3.03
2022-08-21T11:59:07.915Z,3.03
2022-08-21T12:01:42.778Z,2.63
2022-08-21T12:04:36.365Z,2.58
2022-08-21T12:07:30.966Z,2.95
2022-08-21T12:10:00.953Z,2.97
2022-08-21T12:12:31.576Z,2.80
2022-08-21T12:15:20.556Z,3.33
2022-08-21T12:18:06.980Z,3.17
2022-08-21T12:20:50.622Z,2.80
2022-08-21T12:23:46.036Z,2.75
2022-08-21T12:29:15.200Z,2.45
2022-08-21T12:32:21.285Z,2.90
2022-08-21T12:35:08.313Z,4.20
2022-08-21T12:37:50.922Z,22.73
2022-08-21T12:40:44.416Z,16.10
2022-08-21T12:43:30.513Z,10.77
2022-08-21T12:46:00.083Z,10.07
2022-08-21T12:48:57.684Z,7.45
2022-08-21T12:51:34.489Z,6.43
2022-08-21T12:54:01.950Z,5.57
2022-08-21T12:56:32.493Z,4.05
2022-08-21T12:59:06.588Z,4.30
2022-08-21T13:01:50.255Z,3.70
2022-08-21T13:04:27.679Z,3.17
2022-08-21T13:06:59.885Z,2.47
2022-08-21T13:09:30.658Z,3.08
2022-08-21T13:11:58.946Z,3.20
2022-08-21T13:14:47.455Z,2.45
2022-08-21T13:17:25.976Z,2.67
2022-08-21T13:20:03.775Z,2.60
2022-08-21T13:22:33.727Z,2.83
2022-08-21T13:25:05.893Z,3.15
2022-08-21T13:27:35.306Z,4.90
2022-08-21T13:30:14.032Z,4.85
2022-08-21T13:32:48.384Z,4.45
2022-08-21T13:37:49.313Z,3.30
2022-08-21T13:40:42.975Z,3.15
2022-08-21T13:43:18.393Z,2.75
2022-08-21T13:45:53.341Z,2.55
2022-08-21T13:48:27.255Z,2.88
2022-08-21T13:50:55.153Z,2.65
2022-08-21T13:53:30.021Z,2.58
2022-08-21T13:56:00.715Z,2.95
2022-08-21T13:58:44.762Z,3.15
2022-08-21T14:01:32.336Z,2.30
2022-08-21T14:04:08.392Z,2.25
2022-08-21T14:06:38.532Z,3.50
2022-08-21T14:09:22.683Z,33.17
2022-08-21T14:11:50.018Z,26.67
2022-08-21T14:14:29.245Z,31.00
2022-08-21T14:17:01.105Z,28.45
2022-08-21T14:19:42.671Z,32.95
2022-08-21T14:22:48.114Z,37.63
2022-08-21T14:28:18.936Z,27.20
2022-08-21T14:30:47.630Z,19.65
2022-08-21T14:33:32.754Z,21.58
2022-08-21T14:36:01.909Z,25.45
2022-08-21T14:38:29.811Z,25.75
2022-08-21T14:41:05.902Z,29.73
2022-08-21T14:43:33.308Z,31.45
2022-08-21T14:46:02.447Z,32.65
2022-08-21T14:48:29.759Z,32.13
2022-08-21T14:51:00.577Z,33.70
2022-08-21T14:53:28.286Z,30.60
2022-08-21T14:56:07.903Z,32.67
2022-08-21T14:58:45.117Z,31.83
2022-08-21T15:01:14.944Z,32.55
2022-08-21T15:03:42.599Z,31.58
2022-08-21T15:06:10.747Z,30.00
2022-08-21T15:08:38.146Z,28.02
2022-08-21T15:11:17.438Z,24.08
2022-08-21T15:13:51.477Z,23.33
2022-08-21T15:16:18.797Z,20.23
2022-08-21T15:18:46.038Z,19.67
2022-08-21T15:21:13.387Z,17.10
2022-08-21T15:23:43.635Z,16.90
2022-08-21T15:26:11.626Z,17.05
2022-08-21T15:28:39.106Z,15.48
2022-08-21T15:31:06.780Z,13.02
2022-08-21T15:33:34.914Z,11.80
2022-08-21T15:36:02.514Z,14.75
2022-08-21T15:38:30.277Z,13.77
2022-08-21T15:40:58.062Z,12.55
2022-08-21T15:43:30.561Z,14.02
2022-08-21T15:46:00.696Z,12.48
2022-08-21T15:48:28.541Z,10.13
2022-08-21T15:50:55.876Z,10.23
2022-08-21T15:53:23.431Z,8.68
2022-08-21T15:55:50.762Z,7.30
2022-08-21T15:58:20.896Z,6.85
2022-08-21T16:00:48.291Z,6.82
2022-08-21T16:03:18.870Z,5.30
2022-08-21T16:05:49.291Z,4.90
2022-08-21T16:08:16.931Z,4.57
2022-08-21T16:10:44.286Z,3.53
2022-08-21T16:13:25.842Z,3.55
2022-08-21T16:15:54.151Z,4.05
2022-08-21T16:18:23.888Z,3.03
2022-08-21T16:20:51.264Z,3.70
2022-08-21T16:23:18.748Z,2.95
2022-08-21T16:25:46.727Z,4.72
2022-08-21T16:28:16.574Z,3.50
2022-08-21T16:30:48.248Z,2.53
2022-08-21T16:33:34.269Z,3.53
2022-08-21T16:36:02.043Z,4.13
2022-08-21T16:38:30.633Z,3.50
2022-08-21T16:40:59.247Z,3.35
2022-08-21T16:43:29.928Z,4.20
2022-08-21T16:45:58.812Z,5.82
2022-08-21T16:48:26.578Z,4.05
2022-08-21T16:50:53.828Z,4.78
2022-08-21T16:53:21.640Z,4.80
2022-08-21T16:55:50.514Z,4.30
2022-08-21T16:58:26.629Z,3.83
2022-08-21T17:00:54.481Z,3.53
2022-08-21T17:03:32.519Z,3.22
2022-08-21T17:06:00.706Z,3.50
2022-08-21T17:08:28.372Z,3.92
2022-08-21T17:10:55.993Z,3.30
2022-08-21T17:13:23.375Z,3.67
2022-08-21T17:15:50.797Z,3.30
2022-08-21T17:18:20.383Z,2.85
2022-08-21T17:20:48.650Z,2.67
2022-08-21T17:23:17.398Z,2.40
2022-08-21T17:25:49.516Z,2.78
2022-08-21T17:28:27.667Z,3.22
2022-08-21T17:30:58.438Z,2.70
2022-08-21T17:33:27.328Z,2.58
2022-08-21T17:35:54.903Z,2.63
2022-08-21T17:38:22.267Z,3.00
2022-08-21T17:40:50.671Z,2.22
2022-08-21T17:43:18.067Z,1.95
2022-08-21T17:45:45.836Z,1.70
2022-08-21T17:48:13.471Z,1.80
2022-08-21T17:50:40.860Z,2.00
2022-08-21T17:53:08.225Z,2.00
2022-08-21T17:55:36.177Z,1.98
2022-08-21T17:58:04.343Z,2.20
2022-08-21T18:00:32.579Z,2.05
2022-08-21T18:03:03.774Z,2.17
2022-08-21T18:05:31.219Z,1.85
2022-08-21T18:07:58.920Z,2.03
2022-08-21T18:10:26.285Z,1.98
2022-08-21T18:12:54.139Z,2.10
2022-08-21T18:15:22.089Z,2.22
2022-08-21T18:17:51.849Z,3.08
2022-08-21T18:20:21.852Z,3.28
2022-08-21T18:22:49.301Z,2.67
2022-08-21T18:25:17.304Z,2.63
2022-08-21T18:27:46.254Z,2.42
2022-08-21T18:30:23.679Z,2.92
2022-08-21T18:32:54.493Z,2.42
2022-08-21T18:35:23.072Z,2.50
2022-08-21T18:37:50.404Z,2.65
2022-08-21T18:40:18.120Z,2.25
2022-08-21T18:42:55.262Z,2.10
2022-08-21T18:45:24.111Z,2.10
2022-08-21T18:47:55.052Z,3.22
2022-08-21T18:50:25.146Z,2.58
2022-08-21T18:52:54.516Z,2.70
2022-08-21T18:55:23.088Z,2.65
2022-08-21T18:57:54.026Z,3.63
2022-08-21T19:00:26.728Z,2.80
2022-08-21T19:02:54.469Z,2.90
2022-08-21T19:05:23.357Z,2.97
2022-08-21T19:07:51.088Z,2.70
2022-08-21T19:10:28.126Z,2.22
2022-08-21T19:13:00.680Z,2.90
2022-08-21T19:15:28.549Z,2.85
2022-08-21T19:17:58.171Z,2.95
2022-08-21T19:20:34.611Z,3.00
2022-08-21T19:23:06.381Z,3.50
2022-08-21T19:25:35.688Z,2.55
2022-08-21T19:28:10.891Z,2.50
2022-08-21T19:30:42.296Z,2.25
2022-08-21T19:33:26.502Z,2.60
2022-08-21T19:35:54.051Z,2.30
2022-08-21T19:38:21.777Z,2.22
2022-08-21T19:40:49.800Z,2.72
2022-08-21T19:46:05.136Z,2.35
2022-08-21T19:48:33.642Z,2.70
2022-08-21T19:51:00.919Z,3.35
2022-08-21T19:53:28.192Z,2.53
2022-08-21T19:55:55.470Z,3.75
2022-08-21T19:58:43.221Z,4.57
2022-08-21T20:03:59.423Z,3.25
2022-08-21T20:06:27.237Z,3.65
2022-08-21T20:08:55.300Z,3.40
2022-08-21T20:11:35.945Z,3.03
2022-08-21T20:14:04.782Z,3.00
2022-08-21T20:16:32.563Z,3.00
2022-08-21T20:19:03.145Z,2.28
2022-08-21T20:21:30.789Z,2.55
2022-08-21T20:24:14.556Z,2.92
2022-08-21T20:27:01.922Z,2.97
2022-08-21T20:29:38.976Z,2.30
2022-08-21T20:32:12.151Z,2.78
2022-08-21T20:34:55.543Z,2.55
2022-08-21T20:37:35.851Z,2.92
2022-08-21T20:40:10.272Z,2.05
2022-08-21T20:42:44.870Z,2.05
2022-08-21T20:45:18.603Z,2.33
2022-08-21T20:47:46.094Z,2.10
2022-08-21T20:50:17.542Z,2.13
2022-08-21T20:52:49.612Z,2.00
2022-08-21T20:55:29.354Z,2.30
2022-08-21T20:58:06.045Z,2.22
2022-08-21T21:00:40.274Z,1.90
2022-08-21T21:03:30.297Z,2.10
2022-08-21T21:06:09.451Z,2.08
2022-08-21T21:08:46.743Z,1.75
2022-08-21T21:11:23.581Z,2.00
2022-08-21T21:14:13.172Z,1.80
2022-08-21T21:16:51.238Z,1.60
2022-08-21T21:19:37.321Z,1.80
2022-08-21T21:22:10.960Z,2.10
2022-08-21T21:24:56.537Z,1.80
2022-08-21T21:27:49.222Z,1.80
2022-08-21T21:30:33.210Z,1.92
2022-08-21T21:33:00.728Z,1.98
2022-08-21T21:35:41.629Z,1.60
2022-08-21T21:38:19.216Z,2.20
2022-08-21T21:40:53.702Z,1.92
2022-08-21T21:43:27.008Z,1.80
2022-08-21T21:46:26.421Z,2.03
2022-08-21T21:49:23.956Z,1.85
2022-08-21T21:52:12.903Z,1.60
2022-08-21T21:55:05.943Z,1.77
2022-08-21T21:57:46.324Z,1.63
2022-08-21T22:00:21.545Z,1.90
2022-08-21T22:03:05.239Z,1.98
2022-08-21T22:05:38.246Z,1.58
2022-08-21T22:08:30.648Z,1.90
2022-08-21T22:11:40.703Z,1.67
2022-08-21T22:14:16.997Z,1.67
2022-08-21T22:16:48.733Z,1.40
2022-08-21T22:19:33.772Z,2.05
2022-08-21T22:24:37.696Z,1.80
2022-08-21T22:27:14.933Z,1.40
2022-08-21T22:29:54.582Z,1.50
2022-08-21T22:32:37.653Z,1.80
2022-08-21T22:35:19.773Z,1.40
2022-08-21T22:37:53.463Z,1.45
2022-08-21T22:40:27.958Z,1.40
2022-08-21T22:43:14.858Z,1.55
2022-08-21T22:46:01.846Z,1.75
2022-08-21T22:48:50.901Z,1.73
2022-08-21T22:51:37.431Z,1.80
2022-08-21T22:54:16.850Z,1.83
2022-08-21T22:57:02.313Z,1.40
2022-08-21T22:59:35.099Z,1.58
2022-08-21T23:02:24.411Z,1.50
2022-08-21T23:04:56.743Z,1.75
2022-08-21T23:07:34.936Z,1.90
2022-08-21T23:10:26.121Z,1.60
2022-08-21T23:16:01.484Z,1.60
2022-08-21T23:18:48.373Z,1.42
2022-08-21T23:21:45.978Z,1.15
2022-08-21T23:24:25.362Z,1.60
2022-08-21T23:27:03.989Z,1.63
2022-08-21T23:29:56.252Z,1.45
2022-08-21T23:36:10.462Z,1.30
2022-08-21T23:38:56.756Z,1.55
2022-08-21T23:41:39.381Z,1.40
2022-08-21T23:44:35.990Z,1.30
2022-08-21T23:47:33.440Z,1.42
2022-08-21T23:50:22.527Z,1.40
2022-08-21T23:53:20.456Z,1.40
2022-08-21T23:56:07.487Z,1.20
2022-08-21T23:58:50.719Z,1.45
